sensor_id;sensor_type;location;lat;lon;timestamp;pressure;altitude;pressure_sealevel;temperature;humidity
40838;BME280;29632;49.168;9.848;2022-12-29T00:01:49;96335.47;;;12.40;47.89
40838;BME280;29632;49.168;9.848;2022-12-29T00:04:15;96330.88;;;12.42;47.92
40838;BME280;29632;49.168;9.848;2022-12-29T00:06:42;96329.75;;;12.44;47.68
40838;BME280;29632;49.168;9.848;2022-12-29T00:09:08;96325.34;;;12.45;47.71
40838;BME280;29632;49.168;9.848;2022-12-29T00:11:35;96334.63;;;12.47;48.08
40838;BME280;29632;49.168;9.848;2022-12-29T00:14:01;96324.69;;;12.51;47.76
40838;BME280;29632;49.168;9.848;2022-12-29T00:16:45;96330.38;;;12.55;47.72
40838;BME280;29632;49.168;9.848;2022-12-29T00:19:11;96324.00;;;12.57;47.80
40838;BME280;29632;49.168;9.848;2022-12-29T00:21:57;96326.44;;;12.59;48.07
40838;BME280;29632;49.168;9.848;2022-12-29T00:24:42;96320.53;;;12.65;47.86
40838;BME280;29632;49.168;9.848;2022-12-29T00:27:27;96312.22;;;12.70;47.99
40838;BME280;29632;49.168;9.848;2022-12-29T00:30:13;96309.75;;;12.76;47.50
40838;BME280;29632;49.168;9.848;2022-12-29T00:32:57;96308.88;;;12.84;47.92
40838;BME280;29632;49.168;9.848;2022-12-29T00:35:47;96305.44;;;12.92;47.74
40838;BME280;29632;49.168;9.848;2022-12-29T00:38:17;96297.06;;;12.96;47.59
40838;BME280;29632;49.168;9.848;2022-12-29T00:41:02;96310.28;;;13.03;47.60
40838;BME280;29632;49.168;9.848;2022-12-29T00:43:46;96299.97;;;13.10;47.35
40838;BME280;29632;49.168;9.848;2022-12-29T00:46:32;96303.03;;;13.13;47.41
40838;BME280;29632;49.168;9.848;2022-12-29T00:48:58;96301.06;;;13.15;47.65
40838;BME280;29632;49.168;9.848;2022-12-29T00:51:42;96302.38;;;13.19;47.49
40838;BME280;29632;49.168;9.848;2022-12-29T00:54:08;96296.31;;;13.19;47.47
40838;BME280;29632;49.168;9.848;2022-12-29T00:56:33;96300.72;;;13.18;47.51
40838;BME280;29632;49.168;9.848;2022-12-29T00:59:03;96308.41;;;13.20;47.44
40838;BME280;29632;49.168;9.848;2022-12-29T01:01:29;96303.97;;;13.20;47.67
40838;BME280;29632;49.168;9.848;2022-12-29T01:03:55;96298.91;;;13.19;47.43
40838;BME280;29632;49.168;9.848;2022-12-29T01:06:20;96295.66;;;13.17;47.32
40838;BME280;29632;49.168;9.848;2022-12-29T01:08:46;96296.66;;;13.16;47.13
40838;BME280;29632;49.168;9.848;2022-12-29T01:11:12;96296.00;;;13.14;47.61
40838;BME280;29632;49.168;9.848;2022-12-29T01:13:38;96303.84;;;13.14;47.30
40838;BME280;29632;49.168;9.848;2022-12-29T01:16:06;96293.22;;;13.15;47.62
40838;BME280;29632;49.168;9.848;2022-12-29T01:18:32;96296.66;;;13.16;47.35
40838;BME280;29632;49.168;9.848;2022-12-29T01:21:02;96301.53;;;13.19;47.61
40838;BME280;29632;49.168;9.848;2022-12-29T01:23:29;96287.47;;;13.20;47.21
40838;BME280;29632;49.168;9.848;2022-12-29T01:25:55;96296.59;;;13.24;47.13
40838;BME280;29632;49.168;9.848;2022-12-29T01:28:21;96299.84;;;13.26;47.18
40838;BME280;29632;49.168;9.848;2022-12-29T01:30:47;96301.66;;;13.26;47.22
40838;BME280;29632;49.168;9.848;2022-12-29T01:33:13;96305.59;;;13.30;47.42
40838;BME280;29632;49.168;9.848;2022-12-29T01:35:39;96309.00;;;13.30;47.02
40838;BME280;29632;49.168;9.848;2022-12-29T01:38:04;96315.53;;;13.34;47.08
40838;BME280;29632;49.168;9.848;2022-12-29T01:40:30;96314.56;;;13.35;47.03
40838;BME280;29632;49.168;9.848;2022-12-29T01:42:56;96309.97;;;13.37;47.15
40838;BME280;29632;49.168;9.848;2022-12-29T01:45:21;96314.22;;;13.38;47.39
40838;BME280;29632;49.168;9.848;2022-12-29T01:47:53;96318.13;;;13.43;47.24
40838;BME280;29632;49.168;9.848;2022-12-29T01:50:36;96314.31;;;13.45;46.98
40838;BME280;29632;49.168;9.848;2022-12-29T01:53:08;96326.44;;;13.46;47.08
40838;BME280;29632;49.168;9.848;2022-12-29T01:55:37;96319.38;;;13.47;47.07
40838;BME280;29632;49.168;9.848;2022-12-29T01:58:05;96314.16;;;13.47;46.90
40838;BME280;29632;49.168;9.848;2022-12-29T02:00:31;96314.78;;;13.49;47.01
40838;BME280;29632;49.168;9.848;2022-12-29T02:02:57;96313.00;;;13.49;47.13
40838;BME280;29632;49.168;9.848;2022-12-29T02:08:09;96311.84;;;13.52;47.44
40838;BME280;29632;49.168;9.848;2022-12-29T02:10:35;96306.09;;;13.56;47.18
40838;BME280;29632;49.168;9.848;2022-12-29T02:13:01;96299.69;;;13.59;47.60
40838;BME280;29632;49.168;9.848;2022-12-29T02:15:51;96299.97;;;13.64;47.53
40838;BME280;29632;49.168;9.848;2022-12-29T02:18:28;96301.91;;;13.70;46.92
40838;BME280;29632;49.168;9.848;2022-12-29T02:21:07;96292.41;;;13.69;47.05
40838;BME280;29632;49.168;9.848;2022-12-29T02:32:02;96291.63;;;13.84;47.23
40838;BME280;29632;49.168;9.848;2022-12-29T02:34:55;96278.66;;;13.90;47.24
40838;BME280;29632;49.168;9.848;2022-12-29T02:37:30;96283.84;;;13.98;46.98
40838;BME280;29632;49.168;9.848;2022-12-29T02:40:24;96276.09;;;14.05;47.06
40838;BME280;29632;49.168;9.848;2022-12-29T02:48:28;96264.81;;;14.20;46.89
40838;BME280;29632;49.168;9.848;2022-12-29T02:53:20;96260.84;;;14.24;46.92
40838;BME280;29632;49.168;9.848;2022-12-29T02:56:07;96257.25;;;14.25;46.82
40838;BME280;29632;49.168;9.848;2022-12-29T02:58:32;96251.28;;;14.31;46.62
40838;BME280;29632;49.168;9.848;2022-12-29T03:09:40;96255.53;;;14.47;46.93
40838;BME280;29632;49.168;9.848;2022-12-29T03:12:19;96252.38;;;14.51;46.46
40838;BME280;29632;49.168;9.848;2022-12-29T03:15:10;96251.19;;;14.54;46.49
40838;BME280;29632;49.168;9.848;2022-12-29T03:19:14;96251.66;;;14.58;46.79
40838;BME280;29632;49.168;9.848;2022-12-29T03:23:47;96250.13;;;14.63;46.51
40838;BME280;29632;49.168;9.848;2022-12-29T03:26:16;96247.34;;;14.65;46.47
40838;BME280;29632;49.168;9.848;2022-12-29T03:29:01;96246.31;;;14.66;46.47
40838;BME280;29632;49.168;9.848;2022-12-29T03:31:27;96246.16;;;14.67;46.62
40838;BME280;29632;49.168;9.848;2022-12-29T03:33:53;96243.25;;;14.62;46.64
40838;BME280;29632;49.168;9.848;2022-12-29T03:36:26;96234.59;;;14.62;46.73
40838;BME280;29632;49.168;9.848;2022-12-29T03:38:58;96232.78;;;14.62;46.46
40838;BME280;29632;49.168;9.848;2022-12-29T03:41:28;96233.59;;;14.63;46.84
40838;BME280;29632;49.168;9.848;2022-12-29T03:43:55;96226.56;;;14.63;46.72
40838;BME280;29632;49.168;9.848;2022-12-29T03:46:21;96223.94;;;14.63;46.76
40838;BME280;29632;49.168;9.848;2022-12-29T03:48:47;96220.50;;;14.63;46.38
40838;BME280;29632;49.168;9.848;2022-12-29T03:51:12;96224.09;;;14.62;46.28
40838;BME280;29632;49.168;9.848;2022-12-29T03:53:38;96229.84;;;14.57;46.57
40838;BME280;29632;49.168;9.848;2022-12-29T03:56:04;96222.75;;;14.51;46.70
40838;BME280;29632;49.168;9.848;2022-12-29T03:58:30;96221.28;;;14.48;46.68
40838;BME280;29632;49.168;9.848;2022-12-29T04:00:56;96231.97;;;14.47;46.76
40838;BME280;29632;49.168;9.848;2022-12-29T04:03:22;96222.81;;;14.43;46.56
40838;BME280;29632;49.168;9.848;2022-12-29T04:05:47;96222.72;;;14.36;46.86
40838;BME280;29632;49.168;9.848;2022-12-29T04:08:13;96230.97;;;14.33;46.86
40838;BME280;29632;49.168;9.848;2022-12-29T04:10:39;96227.53;;;14.32;46.63
40838;BME280;29632;49.168;9.848;2022-12-29T04:13:04;96230.53;;;14.29;46.86
40838;BME280;29632;49.168;9.848;2022-12-29T04:15:30;96234.13;;;14.28;46.91
40838;BME280;29632;49.168;9.848;2022-12-29T04:17:55;96233.31;;;14.28;47.16
40838;BME280;29632;49.168;9.848;2022-12-29T04:20:21;96226.28;;;14.28;46.88
40838;BME280;29632;49.168;9.848;2022-12-29T04:23:05;96232.31;;;14.29;47.04
40838;BME280;29632;49.168;9.848;2022-12-29T04:25:32;96230.31;;;14.31;46.78
40838;BME280;29632;49.168;9.848;2022-12-29T04:27:58;96231.97;;;14.32;46.88
40838;BME280;29632;49.168;9.848;2022-12-29T04:30:23;96239.00;;;14.31;46.77
40838;BME280;29632;49.168;9.848;2022-12-29T04:32:49;96232.59;;;14.34;46.85
40838;BME280;29632;49.168;9.848;2022-12-29T04:35:15;96229.78;;;14.35;46.87
40838;BME280;29632;49.168;9.848;2022-12-29T04:37:40;96234.03;;;14.37;46.98
40838;BME280;29632;49.168;9.848;2022-12-29T04:40:06;96231.59;;;14.35;47.03
40838;BME280;29632;49.168;9.848;2022-12-29T04:42:32;96241.06;;;14.36;47.04
40838;BME280;29632;49.168;9.848;2022-12-29T04:44:58;96230.06;;;14.41;46.97
40838;BME280;29632;49.168;9.848;2022-12-29T04:47:23;96228.06;;;14.43;46.84
40838;BME280;29632;49.168;9.848;2022-12-29T04:49:49;96226.06;;;14.45;46.85
40838;BME280;29632;49.168;9.848;2022-12-29T04:52:15;96230.31;;;14.46;47.12
40838;BME280;29632;49.168;9.848;2022-12-29T04:54:40;96224.91;;;14.47;46.86
40838;BME280;29632;49.168;9.848;2022-12-29T04:57:06;96232.41;;;14.50;46.75
40838;BME280;29632;49.168;9.848;2022-12-29T04:59:32;96210.63;;;14.50;46.74
40838;BME280;29632;49.168;9.848;2022-12-29T05:01:57;96208.84;;;14.50;46.71
40838;BME280;29632;49.168;9.848;2022-12-29T05:04:23;96207.19;;;14.49;46.75
40838;BME280;29632;49.168;9.848;2022-12-29T05:06:49;96200.97;;;14.50;46.88
40838;BME280;29632;49.168;9.848;2022-12-29T05:09:14;96199.34;;;14.49;46.81
40838;BME280;29632;49.168;9.848;2022-12-29T05:11:40;96197.91;;;14.47;46.92
40838;BME280;29632;49.168;9.848;2022-12-29T05:14:05;96194.44;;;14.46;46.73
40838;BME280;29632;49.168;9.848;2022-12-29T05:16:31;96198.44;;;14.42;46.85
40838;BME280;29632;49.168;9.848;2022-12-29T05:18:57;96203.69;;;14.42;46.97
40838;BME280;29632;49.168;9.848;2022-12-29T05:21:22;96185.53;;;14.41;46.68
40838;BME280;29632;49.168;9.848;2022-12-29T05:23:48;96189.34;;;14.38;46.75
40838;BME280;29632;49.168;9.848;2022-12-29T05:26:14;96191.47;;;14.34;47.00
40838;BME280;29632;49.168;9.848;2022-12-29T05:28:39;96192.31;;;14.35;46.95
40838;BME280;29632;49.168;9.848;2022-12-29T05:31:05;96193.13;;;14.35;46.72
40838;BME280;29632;49.168;9.848;2022-12-29T05:33:31;96187.88;;;14.35;47.03
40838;BME280;29632;49.168;9.848;2022-12-29T05:35:56;96195.38;;;14.39;46.70
40838;BME280;29632;49.168;9.848;2022-12-29T05:38:22;96190.59;;;14.42;46.66
40838;BME280;29632;49.168;9.848;2022-12-29T05:40:47;96196.44;;;14.44;46.63
40838;BME280;29632;49.168;9.848;2022-12-29T05:43:13;96187.34;;;14.40;46.63
40838;BME280;29632;49.168;9.848;2022-12-29T05:45:39;96186.50;;;14.40;46.90
40838;BME280;29632;49.168;9.848;2022-12-29T05:48:04;96199.59;;;14.40;46.68
40838;BME280;29632;49.168;9.848;2022-12-29T05:50:30;96207.66;;;14.38;46.67
40838;BME280;29632;49.168;9.848;2022-12-29T05:52:56;96212.25;;;14.36;46.59
40838;BME280;29632;49.168;9.848;2022-12-29T05:55:21;96208.84;;;14.35;46.98
40838;BME280;29632;49.168;9.848;2022-12-29T05:57:47;96214.41;;;14.32;47.00
40838;BME280;29632;49.168;9.848;2022-12-29T06:00:13;96203.16;;;14.32;47.22
40838;BME280;29632;49.168;9.848;2022-12-29T06:02:39;96216.78;;;14.27;46.97
40838;BME280;29632;49.168;9.848;2022-12-29T06:05:05;96209.09;;;14.26;46.98
40838;BME280;29632;49.168;9.848;2022-12-29T06:07:30;96194.56;;;14.23;46.80
40838;BME280;29632;49.168;9.848;2022-12-29T06:09:56;96214.31;;;14.26;46.87
40838;BME280;29632;49.168;9.848;2022-12-29T06:12:22;96206.69;;;14.24;47.15
40838;BME280;29632;49.168;9.848;2022-12-29T06:14:47;96211.09;;;14.24;47.33
40838;BME280;29632;49.168;9.848;2022-12-29T06:17:13;96205.84;;;14.24;47.20
40838;BME280;29632;49.168;9.848;2022-12-29T06:19:39;96198.81;;;14.24;47.19
40838;BME280;29632;49.168;9.848;2022-12-29T06:22:04;96203.22;;;14.24;47.04
40838;BME280;29632;49.168;9.848;2022-12-29T06:24:30;96185.06;;;14.22;46.97
40838;BME280;29632;49.168;9.848;2022-12-29T06:26:56;96179.03;;;14.22;47.24
40838;BME280;29632;49.168;9.848;2022-12-29T06:29:21;96185.28;;;14.21;46.94
40838;BME280;29632;49.168;9.848;2022-12-29T06:31:47;96183.38;;;14.14;46.89
40838;BME280;29632;49.168;9.848;2022-12-29T06:34:14;96199.06;;;14.14;47.03
40838;BME280;29632;49.168;9.848;2022-12-29T06:36:40;96206.59;;;14.18;47.15
40838;BME280;29632;49.168;9.848;2022-12-29T06:39:06;96207.22;;;14.20;47.32
40838;BME280;29632;49.168;9.848;2022-12-29T06:41:31;96206.22;;;14.21;46.90
40838;BME280;29632;49.168;9.848;2022-12-29T06:43:57;96190.69;;;14.19;47.05
40838;BME280;29632;49.168;9.848;2022-12-29T06:46:23;96195.09;;;14.19;47.28
40838;BME280;29632;49.168;9.848;2022-12-29T06:48:48;96195.94;;;14.19;47.12
40838;BME280;29632;49.168;9.848;2022-12-29T06:51:14;96208.84;;;14.21;47.41
40838;BME280;29632;49.168;9.848;2022-12-29T06:53:40;96195.53;;;14.22;47.10
40838;BME280;29632;49.168;9.848;2022-12-29T06:56:06;96191.94;;;14.23;47.33
40838;BME280;29632;49.168;9.848;2022-12-29T06:58:32;96186.97;;;14.28;47.00
40838;BME280;29632;49.168;9.848;2022-12-29T07:00:58;96196.53;;;14.36;47.26
40838;BME280;29632;49.168;9.848;2022-12-29T07:03:23;96200.78;;;14.37;46.85
40838;BME280;29632;49.168;9.848;2022-12-29T07:05:49;96190.31;;;14.37;47.27
40838;BME280;29632;49.168;9.848;2022-12-29T07:08:15;96189.50;;;14.37;47.11
40838;BME280;29632;49.168;9.848;2022-12-29T07:10:40;96196.72;;;14.34;47.06
40838;BME280;29632;49.168;9.848;2022-12-29T07:13:06;96194.75;;;14.37;47.20
40838;BME280;29632;49.168;9.848;2022-12-29T07:15:34;96205.41;;;14.35;47.09
40838;BME280;29632;49.168;9.848;2022-12-29T07:17:59;96223.91;;;14.33;47.08
40838;BME280;29632;49.168;9.848;2022-12-29T07:20:25;96196.25;;;14.31;47.00
40838;BME280;29632;49.168;9.848;2022-12-29T07:22:50;96221.31;;;14.33;46.94
40838;BME280;29632;49.168;9.848;2022-12-29T07:25:16;96215.72;;;14.37;47.03
40838;BME280;29632;49.168;9.848;2022-12-29T07:27:42;96204.66;;;14.41;47.18
40838;BME280;29632;49.168;9.848;2022-12-29T07:30:08;96201.69;;;14.44;47.05
40838;BME280;29632;49.168;9.848;2022-12-29T07:32:34;96209.56;;;14.44;47.05
40838;BME280;29632;49.168;9.848;2022-12-29T07:35:00;96208.56;;;14.45;46.75
40838;BME280;29632;49.168;9.848;2022-12-29T07:37:26;96198.88;;;14.46;46.86
40838;BME280;29632;49.168;9.848;2022-12-29T07:39:52;96202.31;;;14.46;47.04
40838;BME280;29632;49.168;9.848;2022-12-29T07:42:18;96206.75;;;14.46;46.91
40838;BME280;29632;49.168;9.848;2022-12-29T07:44:43;96195.47;;;14.45;46.92
40838;BME280;29632;49.168;9.848;2022-12-29T07:47:09;96215.22;;;14.48;47.00
40838;BME280;29632;49.168;9.848;2022-12-29T07:49:35;96205.38;;;14.50;46.82
40838;BME280;29632;49.168;9.848;2022-12-29T07:52:00;96223.38;;;14.53;47.01
40838;BME280;29632;49.168;9.848;2022-12-29T07:54:26;96223.19;;;14.54;46.62
40838;BME280;29632;49.168;9.848;2022-12-29T07:56:51;96217.94;;;14.54;46.63
40838;BME280;29632;49.168;9.848;2022-12-29T07:59:17;96213.34;;;14.57;47.07
40838;BME280;29632;49.168;9.848;2022-12-29T08:01:43;96219.50;;;14.64;46.65
40838;BME280;29632;49.168;9.848;2022-12-29T08:04:08;96217.13;;;14.69;46.96
40838;BME280;29632;49.168;9.848;2022-12-29T08:06:34;96215.13;;;14.71;46.92
40838;BME280;29632;49.168;9.848;2022-12-29T08:09:00;96209.53;;;14.74;46.54
40838;BME280;29632;49.168;9.848;2022-12-29T08:11:27;96216.25;;;14.77;46.36
40838;BME280;29632;49.168;9.848;2022-12-29T08:13:52;96220.09;;;14.81;46.64
40838;BME280;29632;49.168;9.848;2022-12-29T08:16:18;96241.53;;;14.84;46.85
40838;BME280;29632;49.168;9.848;2022-12-29T08:18:44;96223.78;;;14.86;46.53
40838;BME280;29632;49.168;9.848;2022-12-29T08:21:09;96223.97;;;14.85;46.97
40838;BME280;29632;49.168;9.848;2022-12-29T08:23:35;96219.16;;;14.88;46.52
40838;BME280;29632;49.168;9.848;2022-12-29T08:26:03;96226.84;;;14.90;46.50
40838;BME280;29632;49.168;9.848;2022-12-29T08:28:30;96219.25;;;14.95;46.73
40838;BME280;29632;49.168;9.848;2022-12-29T08:31:00;96226.56;;;15.00;46.64
40838;BME280;29632;49.168;9.848;2022-12-29T08:33:26;96229.00;;;15.01;46.46
40838;BME280;29632;49.168;9.848;2022-12-29T08:35:51;96222.56;;;15.04;46.54
40838;BME280;29632;49.168;9.848;2022-12-29T08:38:17;96235.13;;;15.08;46.27
40838;BME280;29632;49.168;9.848;2022-12-29T08:40:43;96215.78;;;15.09;46.51
40838;BME280;29632;49.168;9.848;2022-12-29T08:43:09;96224.47;;;15.10;46.34
40838;BME280;29632;49.168;9.848;2022-12-29T08:45:35;96218.38;;;15.09;46.33
40838;BME280;29632;49.168;9.848;2022-12-29T08:48:01;96230.69;;;15.09;46.41
40838;BME280;29632;49.168;9.848;2022-12-29T08:50:26;96229.91;;;15.08;46.31
40838;BME280;29632;49.168;9.848;2022-12-29T08:52:52;96237.75;;;15.08;46.39
40838;BME280;29632;49.168;9.848;2022-12-29T08:55:17;96234.13;;;15.09;46.35
40838;BME280;29632;49.168;9.848;2022-12-29T08:57:43;96237.59;;;15.10;46.48
40838;BME280;29632;49.168;9.848;2022-12-29T09:00:09;96224.47;;;15.10;46.33
40838;BME280;29632;49.168;9.848;2022-12-29T09:02:35;96221.84;;;15.10;46.36
40838;BME280;29632;49.168;9.848;2022-12-29T09:05:01;96226.06;;;15.11;46.47
40838;BME280;29632;49.168;9.848;2022-12-29T09:07:26;96215.59;;;15.11;46.32
40838;BME280;29632;49.168;9.848;2022-12-29T09:09:52;96221.44;;;15.13;46.52
40838;BME280;29632;49.168;9.848;2022-12-29T09:12:18;96215.22;;;15.14;46.51
40838;BME280;29632;49.168;9.848;2022-12-29T09:14:45;96224.06;;;15.13;46.56
40838;BME280;29632;49.168;9.848;2022-12-29T09:17:11;96222.84;;;15.09;46.41
40838;BME280;29632;49.168;9.848;2022-12-29T09:19:55;96222.22;;;15.07;46.27
40838;BME280;29632;49.168;9.848;2022-12-29T09:22:20;96224.84;;;15.07;46.36
40838;BME280;29632;49.168;9.848;2022-12-29T09:24:46;96246.44;;;15.09;46.50
40838;BME280;29632;49.168;9.848;2022-12-29T09:27:12;96239.00;;;15.13;46.49
40838;BME280;29632;49.168;9.848;2022-12-29T09:29:37;96236.03;;;15.16;46.46
40838;BME280;29632;49.168;9.848;2022-12-29T09:32:03;96244.50;;;15.18;45.95
40838;BME280;29632;49.168;9.848;2022-12-29T09:34:29;96237.44;;;15.18;46.20
40838;BME280;29632;49.168;9.848;2022-12-29T09:36:55;96232.00;;;15.20;46.27
40838;BME280;29632;49.168;9.848;2022-12-29T09:39:22;96231.66;;;15.23;46.08
40838;BME280;29632;49.168;9.848;2022-12-29T09:41:58;96229.84;;;15.23;46.21
40838;BME280;29632;49.168;9.848;2022-12-29T09:44:39;96233.09;;;15.25;46.04
40838;BME280;29632;49.168;9.848;2022-12-29T09:47:10;96229.47;;;15.26;46.32
40838;BME280;29632;49.168;9.848;2022-12-29T09:49:47;96228.28;;;15.29;46.24
40838;BME280;29632;49.168;9.848;2022-12-29T09:52:18;96222.22;;;15.28;46.09
40838;BME280;29632;49.168;9.848;2022-12-29T09:57:24;96216.78;;;15.30;46.15
40838;BME280;29632;49.168;9.848;2022-12-29T09:59:52;96235.94;;;15.30;46.06
40838;BME280;29632;49.168;9.848;2022-12-29T10:02:32;96223.66;;;15.31;46.19
40838;BME280;29632;49.168;9.848;2022-12-29T10:04:59;96222.22;;;15.28;46.05
40838;BME280;29632;49.168;9.848;2022-12-29T10:08:00;96228.66;;;15.26;46.30
40838;BME280;29632;49.168;9.848;2022-12-29T10:10:43;96218.16;;;15.26;46.30
40838;BME280;29632;49.168;9.848;2022-12-29T10:23:55;96220.88;;;15.33;45.90
40838;BME280;29632;49.168;9.848;2022-12-29T10:26:23;96226.09;;;15.33;45.98
40838;BME280;29632;49.168;9.848;2022-12-29T10:29:26;96228.34;;;15.36;46.09
40838;BME280;29632;49.168;9.848;2022-12-29T10:31:56;96214.03;;;15.38;45.89
40838;BME280;29632;49.168;9.848;2022-12-29T10:34:45;96217.09;;;15.42;46.08
40838;BME280;29632;49.168;9.848;2022-12-29T10:39:49;96231.47;;;15.46;46.20
40838;BME280;29632;49.168;9.848;2022-12-29T10:42:21;96235.72;;;15.47;45.92
40838;BME280;29632;49.168;9.848;2022-12-29T10:44:49;96237.53;;;15.46;46.07
40838;BME280;29632;49.168;9.848;2022-12-29T10:47:19;96237.34;;;15.48;45.94
40838;BME280;29632;49.168;9.848;2022-12-29T10:49:47;96224.03;;;15.49;46.15
40838;BME280;29632;49.168;9.848;2022-12-29T10:52:13;96227.72;;;15.55;46.17
40838;BME280;29632;49.168;9.848;2022-12-29T10:57:47;96228.44;;;15.71;45.66
40838;BME280;29632;49.168;9.848;2022-12-29T11:00:15;96233.16;;;15.75;46.16
40838;BME280;29632;49.168;9.848;2022-12-29T11:05:53;96239.78;;;15.71;45.91
40838;BME280;29632;49.168;9.848;2022-12-29T11:08:24;96234.13;;;15.74;45.92
40838;BME280;29632;49.168;9.848;2022-12-29T11:11:02;96227.28;;;15.73;46.06
40838;BME280;29632;49.168;9.848;2022-12-29T11:13:31;96237.97;;;15.72;45.99
40838;BME280;29632;49.168;9.848;2022-12-29T11:15:56;96242.22;;;15.73;45.96
40838;BME280;29632;49.168;9.848;2022-12-29T11:18:34;96233.69;;;15.71;46.13
40838;BME280;29632;49.168;9.848;2022-12-29T11:21:04;96238.94;;;15.71;45.94
40838;BME280;29632;49.168;9.848;2022-12-29T11:28:37;96229.78;;;15.60;46.18
40838;BME280;29632;49.168;9.848;2022-12-29T11:31:04;96234.22;;;15.59;46.06
40838;BME280;29632;49.168;9.848;2022-12-29T11:33:32;96248.97;;;15.60;46.30
40838;BME280;29632;49.168;9.848;2022-12-29T11:36:02;96240.72;;;15.63;46.42
40838;BME280;29632;49.168;9.848;2022-12-29T11:38:55;96243.25;;;15.57;46.14
40838;BME280;29632;49.168;9.848;2022-12-29T11:41:26;96247.34;;;15.59;46.36
40838;BME280;29632;49.168;9.848;2022-12-29T11:43:54;96245.34;;;15.61;46.28
40838;BME280;29632;49.168;9.848;2022-12-29T11:46:29;96242.34;;;15.64;46.27
40838;BME280;29632;49.168;9.848;2022-12-29T11:48:57;96236.91;;;15.66;46.42
40838;BME280;29632;49.168;9.848;2022-12-29T11:51:42;96243.56;;;15.68;46.23
40838;BME280;29632;49.168;9.848;2022-12-29T11:54:11;96238.91;;;15.64;46.25
40838;BME280;29632;49.168;9.848;2022-12-29T11:56:41;96236.84;;;15.59;46.44
40838;BME280;29632;49.168;9.848;2022-12-29T12:01:53;96250.66;;;15.46;46.67
40838;BME280;29632;49.168;9.848;2022-12-29T12:04:21;96235.09;;;15.45;46.64
40838;BME280;29632;49.168;9.848;2022-12-29T12:06:59;96240.16;;;15.46;46.56
40838;BME280;29632;49.168;9.848;2022-12-29T12:09:34;96230.09;;;15.50;46.42
40838;BME280;29632;49.168;9.848;2022-12-29T12:12:02;96229.53;;;15.55;46.31
40838;BME280;29632;49.168;9.848;2022-12-29T12:14:51;96238.84;;;15.57;46.54
40838;BME280;29632;49.168;9.848;2022-12-29T12:17:23;96223.72;;;15.59;46.43
40838;BME280;29632;49.168;9.848;2022-12-29T12:19:56;96229.59;;;15.61;46.35
40838;BME280;29632;49.168;9.848;2022-12-29T12:25:04;96233.91;;;15.69;46.52
40838;BME280;29632;49.168;9.848;2022-12-29T12:28:00;96231.91;;;15.71;46.38
40838;BME280;29632;49.168;9.848;2022-12-29T12:30:36;96226.66;;;15.71;46.28
40838;BME280;29632;49.168;9.848;2022-12-29T12:33:30;96224.31;;;15.76;46.11
40838;BME280;29632;49.168;9.848;2022-12-29T12:38:56;96227.59;;;15.85;46.13
40838;BME280;29632;49.168;9.848;2022-12-29T12:41:28;96232.44;;;15.88;46.04
40838;BME280;29632;49.168;9.848;2022-12-29T12:44:06;96231.28;;;15.91;46.05
40838;BME280;29632;49.168;9.848;2022-12-29T13:00:49;96238.13;;;15.70;46.05
40838;BME280;29632;49.168;9.848;2022-12-29T13:03:49;96230.22;;;15.63;46.31
40838;BME280;29632;49.168;9.848;2022-12-29T13:06:40;96225.53;;;15.59;46.21
40838;BME280;29632;49.168;9.848;2022-12-29T13:11:47;96221.03;;;15.53;46.45
40838;BME280;29632;49.168;9.848;2022-12-29T13:14:50;96225.84;;;15.49;46.59
40838;BME280;29632;49.168;9.848;2022-12-29T13:22:43;96225.94;;;15.34;46.60
40838;BME280;29632;49.168;9.848;2022-12-29T13:25:37;96209.09;;;15.28;46.69
40838;BME280;29632;49.168;9.848;2022-12-29T13:36:03;96215.66;;;15.18;46.80
40838;BME280;29632;49.168;9.848;2022-12-29T13:38:36;96216.41;;;15.12;46.68
40838;BME280;29632;49.168;9.848;2022-12-29T13:41:13;96214.97;;;15.09;46.81
40838;BME280;29632;49.168;9.848;2022-12-29T13:43:41;96210.09;;;15.06;46.87
40838;BME280;29632;49.168;9.848;2022-12-29T13:46:18;96232.88;;;15.05;46.86
40838;BME280;29632;49.168;9.848;2022-12-29T13:48:50;96231.06;;;15.06;46.70
40838;BME280;29632;49.168;9.848;2022-12-29T13:51:17;96228.25;;;15.07;46.61
40838;BME280;29632;49.168;9.848;2022-12-29T13:56:49;96242.44;;;15.13;46.35
40838;BME280;29632;49.168;9.848;2022-12-29T14:02:31;96224.66;;;15.08;46.72
40838;BME280;29632;49.168;9.848;2022-12-29T14:07:48;96240.38;;;15.08;46.73
40838;BME280;29632;49.168;9.848;2022-12-29T14:13:11;96233.94;;;15.11;46.51
40838;BME280;29632;49.168;9.848;2022-12-29T14:15:39;96227.53;;;15.14;46.57
40838;BME280;29632;49.168;9.848;2022-12-29T14:18:15;96236.63;;;15.18;46.82
40838;BME280;29632;49.168;9.848;2022-12-29T14:20:58;96242.16;;;15.23;46.52
40838;BME280;29632;49.168;9.848;2022-12-29T14:28:34;96235.84;;;15.39;46.27
40838;BME280;29632;49.168;9.848;2022-12-29T14:31:02;96242.91;;;15.38;46.44
40838;BME280;29632;49.168;9.848;2022-12-29T14:33:33;96233.03;;;15.40;46.41
40838;BME280;29632;49.168;9.848;2022-12-29T14:36:25;96240.53;;;15.43;46.32
40838;BME280;29632;49.168;9.848;2022-12-29T14:38:52;96247.03;;;15.47;46.37
40838;BME280;29632;49.168;9.848;2022-12-29T14:41:32;96239.97;;;15.48;46.49
40838;BME280;29632;49.168;9.848;2022-12-29T14:46:49;96243.53;;;15.40;46.52
40838;BME280;29632;49.168;9.848;2022-12-29T14:49:22;96249.16;;;15.37;46.51
40838;BME280;29632;49.168;9.848;2022-12-29T14:51:50;96246.53;;;15.37;46.51
40838;BME280;29632;49.168;9.848;2022-12-29T14:54:40;96255.59;;;15.35;46.70
40838;BME280;29632;49.168;9.848;2022-12-29T14:57:12;96245.03;;;15.28;46.76
40838;BME280;29632;49.168;9.848;2022-12-29T14:59:39;96242.75;;;15.25;46.66
40838;BME280;29632;49.168;9.848;2022-12-29T15:02:13;96249.66;;;15.26;46.99
40838;BME280;29632;49.168;9.848;2022-12-29T15:04:40;96247.22;;;15.24;46.77
40838;BME280;29632;49.168;9.848;2022-12-29T15:07:09;96255.06;;;15.24;47.00
40838;BME280;29632;49.168;9.848;2022-12-29T15:09:47;96262.16;;;15.24;46.86
40838;BME280;29632;49.168;9.848;2022-12-29T15:14:57;96269.19;;;15.23;46.86